createdAt,value
2024-03-04T00:01:01.380Z,19.08
2024-03-04T00:06:06.240Z,17.35
2024-03-04T00:11:09.250Z,22.17
2024-03-04T00:16:11.354Z,19.83
2024-03-04T00:21:13.389Z,23.33
2024-03-04T00:26:15.461Z,21.23
2024-03-04T00:31:17.548Z,24.15
2024-03-04T00:36:23.740Z,19.60
2024-03-04T00:41:27.038Z,22.73
2024-03-04T00:46:29.137Z,25.52
2024-03-04T00:51:31.144Z,23.30
2024-03-04T00:56:33.155Z,24.38
2024-03-04T01:01:35.560Z,26.77
2024-03-04T01:06:39.700Z,24.13
2024-03-04T01:11:42.101Z,26.85
2024-03-04T01:16:50.423Z,27.20
2024-03-04T01:21:52.421Z,24.45
2024-03-04T01:26:54.485Z,28.23
2024-03-04T01:31:56.493Z,27.70
2024-03-04T01:36:58.581Z,29.10
2024-03-04T01:42:01.275Z,30.27
2024-03-04T01:47:09.269Z,33.30
2024-03-04T01:52:12.958Z,24.50
2024-03-04T01:57:18.484Z,26.83
2024-03-04T02:02:21.093Z,26.63
2024-03-04T02:07:24.061Z,29.13
2024-03-04T02:12:26.279Z,24.23
2024-03-04T02:17:34.579Z,27.20
2024-03-04T02:22:37.264Z,25.88
2024-03-04T02:27:39.846Z,24.10
2024-03-04T02:32:43.080Z,29.02
2024-03-04T02:37:46.230Z,28.00
2024-03-04T02:42:48.343Z,26.23
2024-03-04T02:47:50.509Z,25.70
2024-03-04T02:52:52.676Z,24.92
2024-03-04T02:57:55.140Z,26.83
2024-03-04T03:02:57.618Z,25.83
2024-03-04T03:07:59.658Z,26.08
2024-03-04T03:13:01.711Z,21.00
2024-03-04T03:18:03.977Z,27.33
2024-03-04T03:23:06.118Z,23.60
2024-03-04T03:28:08.193Z,23.10
2024-03-04T03:33:12.624Z,26.13
2024-03-04T03:38:14.865Z,19.58
2024-03-04T03:43:18.672Z,20.55
2024-03-04T03:48:20.742Z,22.75
2024-03-04T03:53:24.463Z,24.35
2024-03-04T03:58:26.764Z,18.63
2024-03-04T04:03:29.854Z,19.83
2024-03-04T04:08:31.858Z,17.23
2024-03-04T04:13:33.935Z,19.00
2024-03-04T04:18:36.210Z,19.98
2024-03-04T04:23:38.281Z,17.65
2024-03-04T04:28:44.269Z,14.90
2024-03-04T04:33:46.298Z,14.73
2024-03-04T04:38:48.379Z,14.27
2024-03-04T04:43:50.356Z,17.88
2024-03-04T04:48:52.355Z,17.85
2024-03-04T04:53:54.343Z,17.80
2024-03-04T04:58:56.410Z,18.80
2024-03-04T05:04:14.398Z,17.42
2024-03-04T05:09:20.621Z,16.45
2024-03-04T05:14:23.022Z,17.08
2024-03-04T05:19:29.068Z,17.23
2024-03-04T05:24:31.137Z,21.80
2024-03-04T05:29:33.237Z,15.45
2024-03-04T05:34:35.471Z,19.23
2024-03-04T05:39:37.630Z,13.82
2024-03-04T05:44:39.879Z,17.05
2024-03-04T05:49:42.107Z,14.35
2024-03-04T05:54:44.256Z,14.75
2024-03-04T05:59:46.306Z,13.20
2024-03-04T06:04:48.458Z,15.63
2024-03-04T06:09:50.513Z,15.45
2024-03-04T06:14:52.630Z,16.27
2024-03-04T06:19:54.968Z,13.02
2024-03-04T06:24:57.027Z,14.52
2024-03-04T06:29:59.070Z,11.70
2024-03-04T06:35:01.230Z,12.52
2024-03-04T06:40:04.266Z,12.27
2024-03-04T06:45:06.696Z,17.10
2024-03-04T06:50:08.807Z,14.13
2024-03-04T06:55:10.970Z,13.65
2024-03-04T07:00:14.901Z,12.80
2024-03-04T07:05:17.102Z,15.65
2024-03-04T07:10:19.400Z,13.50
2024-03-04T07:15:21.423Z,14.63
2024-03-04T07:20:23.508Z,14.30
2024-03-04T07:25:25.662Z,14.80
2024-03-04T07:30:27.659Z,17.02
2024-03-04T07:35:29.684Z,15.57
2024-03-04T07:40:32.192Z,18.35
2024-03-04T07:45:34.289Z,17.58
2024-03-04T07:50:36.317Z,14.88
2024-03-04T07:55:38.474Z,15.35
2024-03-04T08:00:40.577Z,13.93
2024-03-04T08:05:45.311Z,16.02
2024-03-04T08:10:47.567Z,17.85
2024-03-04T08:15:50.213Z,11.95
2024-03-04T08:20:53.895Z,18.30
2024-03-04T08:25:56.126Z,19.23
2024-03-04T08:30:58.688Z,20.20
2024-03-04T08:36:00.700Z,13.70
2024-03-04T08:41:04.356Z,15.48
2024-03-04T08:46:06.448Z,17.70
2024-03-04T08:51:08.677Z,13.82
2024-03-04T08:56:10.786Z,14.93
2024-03-04T09:01:13.034Z,14.15
2024-03-04T09:06:19.607Z,13.00
2024-03-04T09:11:22.641Z,15.70
2024-03-04T09:16:24.884Z,14.88
2024-03-04T09:21:27.013Z,15.30
2024-03-04T09:26:29.138Z,14.80
2024-03-04T09:31:32.058Z,12.57
2024-03-04T09:36:34.087Z,19.00
2024-03-04T09:41:39.314Z,15.13
2024-03-04T09:46:42.442Z,14.07
2024-03-04T09:51:46.660Z,12.15
2024-03-04T09:56:49.031Z,10.52
2024-03-04T10:01:51.660Z,14.95
2024-03-04T10:06:53.799Z,14.02
2024-03-04T10:11:56.033Z,10.35
2024-03-04T10:16:58.482Z,10.02
2024-03-04T10:22:00.782Z,9.18
2024-03-04T10:27:04.103Z,8.43
2024-03-04T10:32:06.798Z,8.73
2024-03-04T10:37:09.347Z,12.80
2024-03-04T10:42:13.303Z,14.43
2024-03-04T10:47:16.413Z,12.07
2024-03-04T10:52:20.503Z,11.98
2024-03-04T10:57:28.297Z,12.55
2024-03-04T11:02:59.804Z,9.52
2024-03-04T11:08:17.658Z,11.65
2024-03-04T11:13:33.825Z,12.40
2024-03-04T11:19:20.884Z,9.43
2024-03-04T11:24:24.817Z,11.77
2024-03-04T11:29:28.472Z,9.85
2024-03-04T11:34:30.851Z,10.18
2024-03-04T11:39:32.887Z,8.93
2024-03-04T11:44:36.222Z,11.85
2024-03-04T11:49:49.214Z,9.63
2024-03-04T11:54:51.972Z,11.82
2024-03-04T12:00:11.512Z,12.65
2024-03-04T12:05:14.251Z,11.68
2024-03-04T12:10:17.984Z,15.30
2024-03-04T12:15:20.312Z,11.23
2024-03-04T12:20:22.522Z,11.75
2024-03-04T12:25:28.648Z,15.00
2024-03-04T12:30:32.149Z,13.70
2024-03-04T12:35:34.415Z,13.35
2024-03-04T12:40:37.583Z,11.25
2024-03-04T12:45:39.886Z,13.32
2024-03-04T12:50:44.336Z,13.27
2024-03-04T12:55:49.194Z,14.40
2024-03-04T13:00:51.894Z,14.98
2024-03-04T13:05:54.053Z,15.52
2024-03-04T13:10:56.105Z,14.93
2024-03-04T13:15:58.704Z,13.05
2024-03-04T13:21:04.203Z,16.05
2024-03-04T13:26:06.365Z,14.77
2024-03-04T13:31:08.684Z,12.85
2024-03-04T13:36:11.463Z,15.65
2024-03-04T13:41:14.160Z,16.50
2024-03-04T13:46:16.624Z,14.23
2024-03-04T13:51:18.628Z,17.98
2024-03-04T13:56:22.203Z,16.70
2024-03-04T14:01:25.293Z,15.50
2024-03-04T14:06:28.620Z,14.40
2024-03-04T14:11:31.298Z,8.90
2024-03-04T14:16:33.643Z,12.25
2024-03-04T14:21:35.735Z,10.95
2024-03-04T14:26:38.383Z,9.25
2024-03-04T14:31:40.558Z,12.38
2024-03-04T14:36:42.631Z,8.57
2024-03-04T14:41:44.675Z,9.70
2024-03-04T14:46:46.923Z,9.13
2024-03-04T14:51:48.986Z,8.38
2024-03-04T14:56:51.552Z,8.68
2024-03-04T15:01:53.561Z,9.65
2024-03-04T15:06:55.648Z,8.48
2024-03-04T15:11:57.735Z,8.85
2024-03-04T15:17:00.126Z,9.10
2024-03-04T15:22:02.599Z,7.18
2024-03-04T15:27:05.658Z,10.30
2024-03-04T15:32:07.752Z,8.25
2024-03-04T15:37:12.097Z,8.68
2024-03-04T15:42:14.623Z,8.07
2024-03-04T15:47:17.304Z,7.82
2024-03-04T15:52:19.684Z,7.72
2024-03-04T15:57:21.712Z,8.05
2024-03-04T16:02:23.686Z,8.70
2024-03-04T16:07:26.767Z,7.97
2024-03-04T16:12:29.582Z,10.57
2024-03-04T16:17:31.761Z,9.90
2024-03-04T16:22:36.815Z,11.20
2024-03-04T16:27:39.578Z,8.15
2024-03-04T16:32:44.533Z,8.10
2024-03-04T16:37:46.696Z,9.00
2024-03-04T16:42:48.886Z,7.30
2024-03-04T16:47:50.900Z,8.13
2024-03-04T16:52:55.483Z,9.40
2024-03-04T16:57:57.558Z,8.00
2024-03-04T17:02:59.747Z,7.97
2024-03-04T17:08:06.728Z,8.27
2024-03-04T17:13:10.767Z,9.43
2024-03-04T17:18:13.281Z,10.13
2024-03-04T17:23:16.271Z,8.05
2024-03-04T17:28:19.144Z,10.77
2024-03-04T17:33:22.976Z,12.02
2024-03-04T17:38:24.986Z,14.70
2024-03-04T17:43:27.129Z,11.88
2024-03-04T17:48:29.180Z,11.30
2024-03-04T17:53:34.120Z,12.40
2024-03-04T17:58:36.406Z,11.88
2024-03-04T18:03:38.468Z,15.18
2024-03-04T18:08:41.844Z,12.23
2024-03-04T18:13:43.958Z,13.90
2024-03-04T18:18:47.302Z,17.48
2024-03-04T18:23:51.858Z,13.52
2024-03-04T18:28:54.345Z,12.95
2024-03-04T18:33:56.794Z,16.33
2024-03-04T18:39:00.727Z,16.13
2024-03-04T18:44:04.274Z,14.82
2024-03-04T18:49:06.671Z,15.93
2024-03-04T18:54:08.850Z,15.02
2024-03-04T18:59:10.939Z,14.82
2024-03-04T19:04:13.054Z,14.20
2024-03-04T19:09:15.709Z,15.00
2024-03-04T19:14:18.101Z,16.30
2024-03-04T19:19:20.134Z,17.63
2024-03-04T19:24:22.221Z,16.85
2024-03-04T19:29:24.616Z,16.58
2024-03-04T19:34:27.716Z,16.88
2024-03-04T19:39:30.160Z,16.02
2024-03-04T19:44:32.423Z,17.33
2024-03-04T19:49:34.466Z,20.73
2024-03-04T19:54:38.862Z,15.63
2024-03-04T19:59:41.545Z,17.45
2024-03-04T20:04:44.611Z,18.02
2024-03-04T20:09:46.937Z,21.90
2024-03-04T20:14:48.991Z,30.88
2024-03-04T20:19:51.704Z,18.23
2024-03-04T20:24:54.565Z,20.55
2024-03-04T20:29:56.764Z,19.58
2024-03-04T20:34:58.840Z,18.15
2024-03-04T20:40:00.857Z,16.98
2024-03-04T20:45:04.762Z,21.77
2024-03-04T20:50:07.617Z,21.38
2024-03-04T20:55:12.531Z,20.05
2024-03-04T21:00:17.327Z,22.15
2024-03-04T21:05:25.662Z,17.10
2024-03-04T21:10:31.528Z,16.35
2024-03-04T21:15:34.155Z,18.35
2024-03-04T21:20:37.079Z,18.38
2024-03-04T21:25:41.753Z,17.27
2024-03-04T21:30:44.820Z,16.15
2024-03-04T21:35:47.014Z,16.77
2024-03-04T21:40:49.549Z,15.40
2024-03-04T21:45:52.776Z,22.45
2024-03-04T21:50:55.122Z,19.88
2024-03-04T21:55:58.175Z,18.20
2024-03-04T22:01:00.278Z,21.48
2024-03-04T22:06:03.214Z,21.90
2024-03-04T22:11:08.591Z,20.88
2024-03-04T22:16:11.472Z,21.45
2024-03-04T22:21:13.587Z,19.17
2024-03-04T22:26:15.561Z,20.52
2024-03-04T22:31:18.265Z,19.98
2024-03-04T22:36:20.952Z,21.98
2024-03-04T22:41:24.404Z,20.77
2024-03-04T22:46:26.458Z,23.25
2024-03-04T22:51:29.052Z,22.05
2024-03-04T22:56:31.161Z,23.35
2024-03-04T23:01:33.368Z,24.15
2024-03-04T23:06:35.439Z,29.50
2024-03-04T23:11:37.529Z,20.88
2024-03-04T23:16:39.780Z,18.92
2024-03-04T23:21:46.698Z,25.70
2024-03-04T23:26:48.723Z,18.25
2024-03-04T23:31:51.478Z,27.90
2024-03-04T23:36:55.236Z,21.98
2024-03-04T23:41:57.496Z,31.13
2024-03-04T23:46:59.664Z,23.35
2024-03-04T23:52:01.692Z,20.52
2024-03-04T23:57:03.770Z,27.55
